createdAt,value
2019-02-06T00:00:41.719Z,73.18
2019-02-06T00:03:14.009Z,72.71
2019-02-06T00:05:44.736Z,72.37
2019-02-06T00:08:15.371Z,72.30
2019-02-06T00:10:45.990Z,72.59
2019-02-06T00:13:16.329Z,72.81
2019-02-06T00:15:46.947Z,72.60
2019-02-06T00:18:17.331Z,72.35
2019-02-06T00:20:47.951Z,72.63
2019-02-06T00:23:18.551Z,72.69
2019-02-06T00:25:49.254Z,72.07
2019-02-06T00:28:19.881Z,72.63
2019-02-06T00:30:51.031Z,72.31
2019-02-06T00:33:21.615Z,72.51
2019-02-06T00:35:52.390Z,72.18
2019-02-06T00:38:22.650Z,72.20
2019-02-06T00:40:53.359Z,72.44
2019-02-06T00:43:23.975Z,71.93
2019-02-06T00:45:55.063Z,72.31
2019-02-06T00:48:25.703Z,72.30
2019-02-06T00:50:55.980Z,72.34
2019-02-06T00:53:26.593Z,72.55
2019-02-06T00:55:57.141Z,72.79
2019-02-06T00:58:27.716Z,72.53
2019-02-06T01:00:58.298Z,72.13
2019-02-06T01:03:28.951Z,72.27
2019-02-06T01:05:59.560Z,71.51
2019-02-06T01:08:30.086Z,71.87
2019-02-06T01:11:00.554Z,71.77
2019-02-06T01:13:31.136Z,71.45
2019-02-06T01:16:01.778Z,71.10
2019-02-06T01:18:32.332Z,71.44
2019-02-06T01:21:02.866Z,71.32
2019-02-06T01:23:33.602Z,71.22
2019-02-06T01:26:04.633Z,71.16
2019-02-06T01:28:35.349Z,71.12
2019-02-06T01:31:07.537Z,71.02
2019-02-06T01:33:38.248Z,71.48
2019-02-06T01:36:08.882Z,70.83
2019-02-06T01:38:39.642Z,71.73
2019-02-06T01:41:10.482Z,70.71
2019-02-06T01:43:41.211Z,70.81
2019-02-06T01:46:11.917Z,70.91
2019-02-06T01:48:42.544Z,70.57
2019-02-06T01:51:13.208Z,70.39
2019-02-06T01:53:44.454Z,71.07
2019-02-06T01:56:15.086Z,70.77
2019-02-06T01:58:45.715Z,70.50
2019-02-06T02:01:16.552Z,70.54
2019-02-06T02:03:47.186Z,70.24
2019-02-06T02:06:18.013Z,70.45
2019-02-06T02:08:50.422Z,70.53
2019-02-06T02:11:21.018Z,70.53
2019-02-06T02:13:51.761Z,71.39
2019-02-06T02:16:23.517Z,70.42
2019-02-06T02:18:53.832Z,70.82
2019-02-06T02:21:24.771Z,70.85
2019-02-06T02:23:55.608Z,71.10
2019-02-06T02:26:26.338Z,70.12
2019-02-06T02:28:56.971Z,70.63
2019-02-06T02:31:27.616Z,70.69
2019-02-06T02:33:59.972Z,69.79
2019-02-06T02:36:30.540Z,70.39
2019-02-06T02:39:01.251Z,70.15
2019-02-06T02:41:31.588Z,70.28
2019-02-06T02:44:02.343Z,69.78
2019-02-06T02:46:32.724Z,69.64
2019-02-06T02:49:03.475Z,70.50
2019-02-06T02:51:33.977Z,69.23
2019-02-06T02:54:04.602Z,68.88
2019-02-06T02:56:35.344Z,69.06
2019-02-06T02:59:06.017Z,69.54
2019-02-06T03:01:50.747Z,68.93
2019-02-06T03:04:23.029Z,69.20
2019-02-06T03:06:53.652Z,68.44
2019-02-06T03:09:24.192Z,68.95
2019-02-06T03:11:55.316Z,69.57
2019-02-06T03:14:27.514Z,69.22
2019-02-06T03:16:57.705Z,68.42
2019-02-06T03:19:27.966Z,67.70
2019-02-06T03:21:58.571Z,67.33
2019-02-06T03:24:29.293Z,68.13
2019-02-06T03:26:59.823Z,67.68
2019-02-06T03:29:30.462Z,67.92
2019-02-06T03:32:01.007Z,67.92
2019-02-06T03:34:31.745Z,68.00
2019-02-06T03:37:02.250Z,67.92
2019-02-06T03:39:33.315Z,67.44
2019-02-06T03:42:03.940Z,67.30
2019-02-06T03:44:34.569Z,68.51
2019-02-06T03:47:05.208Z,67.65
2019-02-06T03:49:35.831Z,68.00
2019-02-06T03:52:06.365Z,67.73
2019-02-06T03:54:37.111Z,68.09
2019-02-06T03:57:07.630Z,67.85
2019-02-06T03:59:38.343Z,68.30
2019-02-06T04:02:08.895Z,68.09
2019-02-06T04:04:39.523Z,68.83
2019-02-06T04:07:10.258Z,67.99
2019-02-06T04:09:40.892Z,68.26
2019-02-06T04:12:11.190Z,67.82
2019-02-06T04:14:42.154Z,68.17
2019-02-06T04:17:12.665Z,68.94
2019-02-06T04:19:42.973Z,69.27
2019-02-06T04:22:13.636Z,69.69
2019-02-06T04:24:44.269Z,69.94
2019-02-06T04:27:14.573Z,69.03
2019-02-06T04:29:44.848Z,69.67
2019-02-06T04:32:15.444Z,69.39
2019-02-06T04:34:46.575Z,70.29
2019-02-06T04:37:17.096Z,70.62
2019-02-06T04:39:47.652Z,70.47
2019-02-06T04:42:18.178Z,70.13
2019-02-06T04:44:48.953Z,71.21
2019-02-06T04:47:19.603Z,71.71
2019-02-06T04:49:50.386Z,72.13
2019-02-06T04:52:20.983Z,72.31
2019-02-06T04:54:51.216Z,72.57
2019-02-06T04:57:21.962Z,72.23
2019-02-06T04:59:52.594Z,72.97
2019-02-06T05:02:23.615Z,73.11
2019-02-06T05:04:54.181Z,73.61
2019-02-06T05:07:24.899Z,73.65
2019-02-06T05:09:55.534Z,74.12
2019-02-06T05:12:26.221Z,74.09
2019-02-06T05:14:56.960Z,74.39
2019-02-06T05:17:29.451Z,74.53
2019-02-06T05:20:05.967Z,74.77
2019-02-06T05:22:36.607Z,74.83
2019-02-06T05:25:08.876Z,75.20
2019-02-06T05:27:41.891Z,75.34
2019-02-06T05:30:13.727Z,75.52
2019-02-06T05:32:44.331Z,75.63
2019-02-06T05:35:15.166Z,75.83
2019-02-06T05:37:45.928Z,75.74
2019-02-06T05:40:16.556Z,75.88
2019-02-06T05:42:49.026Z,75.98
2019-02-06T05:45:20.710Z,76.05
2019-02-06T05:47:51.399Z,76.34
2019-02-06T05:50:22.276Z,76.36
2019-02-06T05:52:54.549Z,76.57
2019-02-06T05:55:26.881Z,76.09
2019-02-06T05:57:57.486Z,76.36
2019-02-06T06:00:29.676Z,76.46
2019-02-06T06:03:00.406Z,76.71
2019-02-06T06:05:31.039Z,76.65
2019-02-06T06:08:01.917Z,76.82
2019-02-06T06:10:32.605Z,76.89
2019-02-06T06:13:03.349Z,76.96
2019-02-06T06:15:34.106Z,77.32
2019-02-06T06:18:04.810Z,77.00
2019-02-06T06:20:35.546Z,77.18
2019-02-06T06:23:05.905Z,77.35
2019-02-06T06:25:36.603Z,77.51
2019-02-06T06:28:07.151Z,77.77
2019-02-06T06:30:37.865Z,77.65
2019-02-06T06:33:08.400Z,77.57
2019-02-06T06:35:39.140Z,77.63
2019-02-06T06:38:10.190Z,77.59
2019-02-06T06:40:40.944Z,77.83
2019-02-06T06:43:11.292Z,77.76
2019-02-06T06:45:42.078Z,78.09
2019-02-06T06:48:12.803Z,78.11
2019-02-06T06:50:43.541Z,77.90
2019-02-06T06:53:14.084Z,77.90
2019-02-06T06:55:44.706Z,78.04
2019-02-06T06:58:18.949Z,77.97
2019-02-06T07:00:49.562Z,77.85
2019-02-06T07:03:20.487Z,77.79
2019-02-06T07:05:51.112Z,77.55
2019-02-06T07:08:21.880Z,77.28
2019-02-06T07:10:52.619Z,77.30
2019-02-06T07:13:23.345Z,77.24
2019-02-06T07:15:54.080Z,77.55
2019-02-06T07:18:25.086Z,77.47
2019-02-06T07:20:55.755Z,77.00
2019-02-06T07:23:26.037Z,77.13
2019-02-06T07:25:56.700Z,76.87
2019-02-06T07:28:27.335Z,77.17
2019-02-06T07:30:57.963Z,76.77
2019-02-06T07:33:30.478Z,76.56
2019-02-06T07:36:01.454Z,76.95
2019-02-06T07:38:32.116Z,76.63
2019-02-06T07:41:06.520Z,76.26
2019-02-06T07:43:38.596Z,76.22
2019-02-06T07:46:09.435Z,76.24
2019-02-06T07:48:40.040Z,76.00
2019-02-06T07:51:10.700Z,76.15
2019-02-06T07:53:42.968Z,75.52
2019-02-06T07:56:13.679Z,75.45
2019-02-06T07:58:45.557Z,75.53
2019-02-06T08:01:16.291Z,75.13
2019-02-06T08:03:46.917Z,75.06
2019-02-06T08:06:17.646Z,75.08
2019-02-06T08:08:48.327Z,75.21
2019-02-06T08:11:21.513Z,75.04
2019-02-06T08:13:51.386Z,75.43
2019-02-06T08:16:22.123Z,74.71
2019-02-06T08:18:54.936Z,74.89
2019-02-06T08:21:25.779Z,74.86
2019-02-06T08:23:56.503Z,74.86
2019-02-06T08:26:27.246Z,75.01
2019-02-06T08:28:57.933Z,74.92
2019-02-06T08:31:28.844Z,75.12
2019-02-06T08:33:59.421Z,74.70
2019-02-06T08:36:32.305Z,74.84
2019-02-06T08:39:06.124Z,74.11
2019-02-06T08:41:37.886Z,74.27
2019-02-06T08:44:12.316Z,74.51
2019-02-06T08:46:43.042Z,73.99
2019-02-06T08:49:13.885Z,73.96
2019-02-06T08:51:44.590Z,73.92
2019-02-06T08:54:14.858Z,73.89
2019-02-06T08:56:45.575Z,73.45
2019-02-06T08:59:16.949Z,72.87
2019-02-06T09:01:50.060Z,72.62
2019-02-06T09:04:23.264Z,72.49
2019-02-06T09:06:54.008Z,72.46
2019-02-06T09:09:26.352Z,71.59
2019-02-06T09:11:57.196Z,71.39
2019-02-06T09:14:27.852Z,71.27
2019-02-06T09:16:58.884Z,71.96
2019-02-06T09:19:34.355Z,71.78
2019-02-06T09:22:07.790Z,71.24
2019-02-06T09:24:38.482Z,70.83
2019-02-06T09:27:09.110Z,71.72
2019-02-06T09:29:40.417Z,70.88
2019-02-06T09:32:11.465Z,71.27
2019-02-06T09:34:42.161Z,71.18
2019-02-06T09:37:12.860Z,71.33
2019-02-06T09:39:43.514Z,71.28
2019-02-06T09:42:14.116Z,70.96
2019-02-06T09:44:46.240Z,70.86
2019-02-06T09:47:16.624Z,70.77
2019-02-06T09:49:49.801Z,70.11
2019-02-06T09:52:19.724Z,70.26
2019-02-06T09:54:50.483Z,70.06
2019-02-06T09:57:21.800Z,70.29
2019-02-06T09:59:52.726Z,69.54
2019-02-06T10:02:23.711Z,69.66
2019-02-06T10:04:54.455Z,69.28
2019-02-06T10:07:25.172Z,69.41
2019-02-06T10:09:57.936Z,69.03
2019-02-06T10:12:28.283Z,69.41
2019-02-06T10:14:58.809Z,69.34
2019-02-06T10:17:29.562Z,69.42
2019-02-06T10:20:00.352Z,68.91
2019-02-06T10:22:31.008Z,69.18
2019-02-06T10:25:03.397Z,69.50
2019-02-06T10:27:34.741Z,69.43
2019-02-06T10:30:14.940Z,69.42
2019-02-06T10:32:45.957Z,69.81
2019-02-06T10:35:17.472Z,70.05
2019-02-06T10:37:47.842Z,69.92
2019-02-06T10:40:19.048Z,69.84
2019-02-06T10:42:49.686Z,68.87
2019-02-06T10:45:21.252Z,68.94
2019-02-06T10:47:52.383Z,68.45
2019-02-06T10:50:38.085Z,68.31
2019-02-06T10:53:09.953Z,67.76
2019-02-06T10:55:40.389Z,67.22
2019-02-06T10:58:11.394Z,67.30
2019-02-06T11:00:50.646Z,67.13
2019-02-06T11:03:20.947Z,66.47
2019-02-06T11:05:51.233Z,66.67
2019-02-06T11:08:22.204Z,66.27
2019-02-06T11:10:52.909Z,66.56
2019-02-06T11:13:23.604Z,66.16
2019-02-06T11:15:54.215Z,65.55
2019-02-06T11:18:24.938Z,65.36
2019-02-06T11:20:57.211Z,65.35
2019-02-06T11:23:33.112Z,64.75
2019-02-06T11:26:06.047Z,64.58
2019-02-06T11:28:38.215Z,64.06
2019-02-06T11:31:09.565Z,63.57
2019-02-06T11:33:51.310Z,63.05
2019-02-06T11:36:24.455Z,63.02
2019-02-06T11:38:54.712Z,63.86
2019-02-06T11:41:25.047Z,62.64
2019-02-06T11:43:56.082Z,63.64
2019-02-06T11:46:26.796Z,63.26
2019-02-06T11:48:59.151Z,63.10
2019-02-06T11:51:30.209Z,63.50
2019-02-06T11:54:00.927Z,63.41
2019-02-06T11:56:31.599Z,63.63
2019-02-06T11:59:02.298Z,64.39
2019-02-06T12:01:33.457Z,63.99
2019-02-06T12:04:03.824Z,64.45
2019-02-06T12:06:34.214Z,64.93
2019-02-06T12:09:08.710Z,64.75
2019-02-06T12:11:41.101Z,64.38
2019-02-06T12:14:11.726Z,64.40
2019-02-06T12:16:42.467Z,63.82
2019-02-06T12:19:13.114Z,63.67
2019-02-06T12:21:43.955Z,63.41
2019-02-06T12:24:14.664Z,63.60
2019-02-06T12:26:45.444Z,63.27
2019-02-06T12:29:16.529Z,62.84
2019-02-06T12:31:47.268Z,62.96
2019-02-06T12:34:17.648Z,62.48
2019-02-06T12:36:48.464Z,62.87
2019-02-06T12:39:19.186Z,62.98
2019-02-06T12:41:49.994Z,63.25
2019-02-06T12:44:21.174Z,63.58
2019-02-06T12:46:51.809Z,63.40
2019-02-06T12:49:23.152Z,63.77
2019-02-06T12:51:53.501Z,63.92
2019-02-06T12:54:24.195Z,63.94
2019-02-06T12:56:55.013Z,63.82
2019-02-06T12:59:27.735Z,64.19
2019-02-06T13:01:58.383Z,64.25
2019-02-06T13:04:34.656Z,64.08
2019-02-06T13:07:01.353Z,64.35
2019-02-06T13:09:34.147Z,64.55
2019-02-06T13:12:05.049Z,63.94
2019-02-06T13:14:35.865Z,63.98
2019-02-06T13:17:07.087Z,63.90
2019-02-06T13:19:37.791Z,64.22
2019-02-06T13:22:08.694Z,64.39
2019-02-06T13:24:41.161Z,64.57
2019-02-06T13:27:12.438Z,63.99
2019-02-06T13:29:46.431Z,63.69
2019-02-06T13:32:17.381Z,64.02
2019-02-06T13:34:48.158Z,64.01
2019-02-06T13:37:19.166Z,64.11
2019-02-06T13:39:49.999Z,64.31
2019-02-06T13:42:20.614Z,64.50
2019-02-06T13:44:51.434Z,64.24
2019-02-06T13:47:22.346Z,63.45
2019-02-06T13:49:54.591Z,63.92
2019-02-06T13:52:25.481Z,64.26
2019-02-06T13:54:55.952Z,64.17
2019-02-06T13:57:33.704Z,64.27
2019-02-06T14:00:01.222Z,63.87
2019-02-06T14:02:33.495Z,64.08
2019-02-06T14:05:04.175Z,64.20
2019-02-06T14:07:34.538Z,64.05
2019-02-06T14:10:09.019Z,64.11
2019-02-06T14:12:39.762Z,64.37
2019-02-06T14:15:13.733Z,64.84
2019-02-06T14:17:44.403Z,64.49
2019-02-06T14:20:17.752Z,64.40
2019-02-06T14:22:51.749Z,64.43
2019-02-06T14:25:31.637Z,65.34
2019-02-06T14:28:11.640Z,65.32
2019-02-06T14:31:13.865Z,66.03
2019-02-06T14:33:59.752Z,66.09
2019-02-06T14:36:39.456Z,66.53
2019-02-06T14:39:31.771Z,66.34
2019-02-06T14:42:30.212Z,66.69
2019-02-06T14:45:33.036Z,66.54
2019-02-06T14:48:10.055Z,66.97
2019-02-06T14:50:44.076Z,67.33
2019-02-06T14:53:39.152Z,67.23
2019-02-06T14:56:21.757Z,67.17
2019-02-06T14:59:10.649Z,67.92
2019-02-06T15:01:53.545Z,67.77
2019-02-06T15:04:36.050Z,67.88
2019-02-06T15:07:15.715Z,67.76
2019-02-06T15:10:04.745Z,67.74
2019-02-06T15:12:50.548Z,67.78
2019-02-06T15:15:47.088Z,68.00
2019-02-06T15:18:42.036Z,67.77
2019-02-06T15:21:21.168Z,68.07
2019-02-06T15:24:19.284Z,68.09
2019-02-06T15:27:21.694Z,67.90
2019-02-06T15:30:01.960Z,68.10
2019-02-06T15:32:53.938Z,68.37
2019-02-06T15:35:33.547Z,68.40
2019-02-06T15:38:17.028Z,68.56
2019-02-06T15:41:09.207Z,68.27
2019-02-06T15:43:58.319Z,68.23
2019-02-06T15:46:32.274Z,68.44
2019-02-06T15:49:20.583Z,68.22
2019-02-06T15:52:06.670Z,68.72
2019-02-06T15:55:05.893Z,69.09
2019-02-06T15:57:56.196Z,69.24
2019-02-06T16:00:42.159Z,69.08
2019-02-06T16:03:29.372Z,68.81
2019-02-06T16:06:16.860Z,69.12
2019-02-06T16:08:59.568Z,69.63
2019-02-06T16:11:45.222Z,69.02
2019-02-06T16:14:21.718Z,69.19
2019-02-06T16:17:04.415Z,69.32
2019-02-06T16:19:38.310Z,69.59
2019-02-06T16:22:11.926Z,69.42
2019-02-06T16:24:48.737Z,69.89
2019-02-06T16:27:28.071Z,69.87
2019-02-06T16:30:25.704Z,69.39
2019-02-06T16:33:15.127Z,69.35
2019-02-06T16:36:03.988Z,69.46
2019-02-06T16:38:40.969Z,69.55
2019-02-06T16:41:23.778Z,69.01
2019-02-06T16:44:16.041Z,69.43
2019-02-06T16:47:13.342Z,69.16
2019-02-06T16:49:58.603Z,69.47
2019-02-06T16:52:44.614Z,69.19
2019-02-06T16:55:31.043Z,69.25
2019-02-06T16:58:16.873Z,69.50
2019-02-06T17:00:53.423Z,69.51
2019-02-06T17:04:00.936Z,69.39
2019-02-06T17:06:50.818Z,69.44
2019-02-06T17:09:41.719Z,69.48
2019-02-06T17:12:38.905Z,69.55
2019-02-06T17:15:18.932Z,69.45
2019-02-06T17:18:07.973Z,69.34
2019-02-06T17:21:06.670Z,69.26
2019-02-06T17:23:43.988Z,69.52
2019-02-06T17:26:31.676Z,69.31
2019-02-06T17:29:14.570Z,69.18
2019-02-06T17:32:15.555Z,69.16
2019-02-06T17:34:50.067Z,69.53
2019-02-06T17:37:48.598Z,69.43
2019-02-06T17:40:22.881Z,69.42
2019-02-06T17:42:57.349Z,69.33
2019-02-06T17:45:47.993Z,69.46
2019-02-06T17:48:41.091Z,69.36
2019-02-06T17:51:33.137Z,70.02
2019-02-06T17:54:12.447Z,69.63
2019-02-06T17:56:43.779Z,69.54
2019-02-06T17:59:14.576Z,69.77
2019-02-06T18:01:45.415Z,69.89
2019-02-06T18:04:16.147Z,69.80
2019-02-06T18:06:46.883Z,69.50
2019-02-06T18:09:17.899Z,69.52
2019-02-06T18:11:48.840Z,69.44
2019-02-06T18:14:19.588Z,69.51
2019-02-06T18:16:50.618Z,69.39
2019-02-06T18:19:21.840Z,69.41
2019-02-06T18:21:53.282Z,69.34
2019-02-06T18:24:24.049Z,69.19
2019-02-06T18:26:54.950Z,68.93
2019-02-06T18:29:25.613Z,69.18
2019-02-06T18:31:55.980Z,68.86
2019-02-06T18:34:26.663Z,69.18
2019-02-06T18:36:57.607Z,68.93
2019-02-06T18:39:28.331Z,68.90
2019-02-06T18:41:58.773Z,69.05
2019-02-06T18:44:29.517Z,68.65
2019-02-06T18:47:01.624Z,68.55
2019-02-06T18:49:32.607Z,68.45
2019-02-06T18:52:03.880Z,68.28
2019-02-06T18:54:35.224Z,68.31
2019-02-06T18:57:06.954Z,68.31
2019-02-06T18:59:38.081Z,68.20
2019-02-06T19:02:09.230Z,68.11
2019-02-06T19:04:41.441Z,68.19
2019-02-06T19:07:12.746Z,68.12
2019-02-06T19:09:44.317Z,67.22
2019-02-06T19:12:15.428Z,67.84
2019-02-06T19:14:46.677Z,68.04
2019-02-06T19:17:17.710Z,67.92
2019-02-06T19:19:48.920Z,68.19
2019-02-06T19:22:20.618Z,67.98
2019-02-06T19:24:52.589Z,68.17
2019-02-06T19:27:23.787Z,68.01
2019-02-06T19:29:55.461Z,68.45
2019-02-06T19:32:27.216Z,68.14
2019-02-06T19:34:58.772Z,67.86
2019-02-06T19:37:29.816Z,67.72
2019-02-06T19:40:00.802Z,67.64
2019-02-06T19:42:32.523Z,67.63
2019-02-06T19:45:04.337Z,67.31
2019-02-06T19:47:36.021Z,67.70
2019-02-06T19:50:13.520Z,67.40
2019-02-06T19:52:45.299Z,68.04
2019-02-06T19:55:18.108Z,67.83
2019-02-06T19:57:51.204Z,68.05
2019-02-06T20:00:28.265Z,68.33
2019-02-06T20:03:00.206Z,68.43
2019-02-06T20:05:32.271Z,68.57
2019-02-06T20:08:04.519Z,68.86
2019-02-06T20:10:54.087Z,68.52
2019-02-06T20:13:25.461Z,68.81
2019-02-06T20:15:57.398Z,69.04
2019-02-06T20:18:29.190Z,69.30
2019-02-06T20:21:01.180Z,69.24
2019-02-06T20:23:33.169Z,69.06
2019-02-06T20:26:05.019Z,68.92
2019-02-06T20:28:36.390Z,68.23
2019-02-06T20:31:07.759Z,72.07
2019-02-06T20:33:39.674Z,69.02
2019-02-06T20:36:12.790Z,69.18
2019-02-06T20:38:44.414Z,68.67
2019-02-06T20:41:15.771Z,68.84
2019-02-06T20:43:47.434Z,68.34
2019-02-06T20:46:20.225Z,68.67
2019-02-06T20:48:51.735Z,68.91
2019-02-06T20:51:24.133Z,68.70
2019-02-06T20:53:55.390Z,69.18
2019-02-06T20:56:25.925Z,69.02
2019-02-06T20:58:56.690Z,68.68
2019-02-06T21:01:27.888Z,69.03
2019-02-06T21:03:59.174Z,69.11
2019-02-06T21:06:36.294Z,69.01
2019-02-06T21:09:10.601Z,68.59
2019-02-06T21:11:41.945Z,68.60
2019-02-06T21:14:13.925Z,67.90
2019-02-06T21:16:45.098Z,68.51
2019-02-06T21:19:16.937Z,68.39
2019-02-06T21:21:47.868Z,68.38
2019-02-06T21:24:19.490Z,68.43
2019-02-06T21:26:51.021Z,68.88
2019-02-06T21:29:22.766Z,68.24
2019-02-06T21:31:55.986Z,68.48
2019-02-06T21:34:27.176Z,68.25
2019-02-06T21:36:58.106Z,68.55
2019-02-06T21:39:29.053Z,68.34
2019-02-06T21:42:00.243Z,68.27
2019-02-06T21:44:31.701Z,67.95
2019-02-06T21:47:02.312Z,68.09
2019-02-06T21:49:34.170Z,67.97
2019-02-06T21:52:05.276Z,67.82
2019-02-06T21:54:36.960Z,67.82
2019-02-06T21:57:08.845Z,68.32
2019-02-06T21:59:40.129Z,67.96
2019-02-06T22:02:11.368Z,67.80
2019-02-06T22:04:42.149Z,67.75
2019-02-06T22:07:13.056Z,68.16
2019-02-06T22:09:45.793Z,67.88
2019-02-06T22:12:16.480Z,67.67
2019-02-06T22:14:47.791Z,67.93
2019-02-06T22:17:18.616Z,68.16
2019-02-06T22:19:49.347Z,67.93
2019-02-06T22:22:21.537Z,67.74
2019-02-06T22:24:52.686Z,67.57
2019-02-06T22:27:23.951Z,67.32
2019-02-06T22:29:55.308Z,67.23
2019-02-06T22:32:26.350Z,67.32
2019-02-06T22:34:58.113Z,66.96
2019-02-06T22:37:29.044Z,67.37
2019-02-06T22:40:00.800Z,67.45
2019-02-06T22:42:32.008Z,67.60
2019-02-06T22:45:03.451Z,67.49
2019-02-06T22:47:34.950Z,67.43
2019-02-06T22:50:09.092Z,67.41
2019-02-06T22:52:40.706Z,67.48
2019-02-06T22:55:13.593Z,67.38
2019-02-06T22:57:44.778Z,67.22
2019-02-06T23:00:24.788Z,67.14
2019-02-06T23:02:55.587Z,67.02
2019-02-06T23:05:26.313Z,66.83
2019-02-06T23:07:57.366Z,66.92
2019-02-06T23:10:28.241Z,66.82
2019-02-06T23:12:59.632Z,66.77
2019-02-06T23:15:30.525Z,66.88
2019-02-06T23:18:01.268Z,66.56
2019-02-06T23:20:31.664Z,66.20
2019-02-06T23:23:02.258Z,66.60
2019-02-06T23:25:32.723Z,66.17
2019-02-06T23:28:03.354Z,66.13
2019-02-06T23:30:34.490Z,66.27
2019-02-06T23:33:05.399Z,65.95
2019-02-06T23:35:36.247Z,66.22
2019-02-06T23:38:07.013Z,66.40
2019-02-06T23:40:37.707Z,65.92
2019-02-06T23:43:09.509Z,66.37
2019-02-06T23:45:40.189Z,66.32
2019-02-06T23:48:25.523Z,66.14
2019-02-06T23:50:56.333Z,65.97
2019-02-06T23:53:27.603Z,66.35
2019-02-06T23:55:58.018Z,66.16
2019-02-06T23:58:28.407Z,66.09
